Flight Track Log - Related Links

Times and Time Zones

All times are in EDT time to prevent confusion due to time zone crossing. See the SWA2089 flight status page for this flight to view local times or setup timezone preferences in your user account.

Time Position Orientation Groundspeed Altitude Reporting Facility
EDT Latitude Longitude Course Direction KTS MPH feet Rate Location/Type
Sat 08:44:07 AM 33.6500 -84.4833 320° Northwest 192 221 2,500  Level Atlanta TRACON
Sat 08:45:07 AM 33.6833 -84.5500 301° West 260 299 5,200 2,982 Climbing Atlanta TRACON
Sat 08:46:52 AM 33.7972 -84.5839 346° North 296 341 10,700 2,691 Climbing Atlanta Center
Sat 08:47:52 AM 33.8933 -84.5819 North 291 335 12,600 2,300 Climbing Atlanta Center
Sat 08:48:52 AM 33.9808 -84.5825 360° North 325 374 15,300 2,600 Climbing Atlanta Center
Sat 08:49:00 AM 33.9078 -84.2411 320° Northwest  Level FlightAware Approximate
Sat 08:49:52 AM 34.0831 -84.5856 359° North 347 399 17,800  Level Atlanta Center
Sat 08:50:52 AM 34.2022 -84.5914 358° North 369 425 20,500 2,300 Climbing Atlanta Center
Sat 08:51:52 AM 34.2961 -84.5994 356° North 382 440 22,400 2,050 Climbing Atlanta Center
Sat 08:52:52 AM 34.4003 -84.6228 350° North 382 440 24,600 2,000 Climbing Atlanta Center
Sat 08:53:52 AM 34.5086 -84.6489 349° North 387 445 26,400 1,850 Climbing Atlanta Center
Sat 08:54:52 AM 34.6169 -84.6747 349° North 395 455 28,300 2,050 Climbing Atlanta Center
Sat 08:55:52 AM 34.7192 -84.7033 347° North 388 447 30,500 1,900 Climbing Atlanta Center
Sat 08:56:52 AM 34.8211 -84.7294 348° North 383 441 32,100 1,500 Climbing Atlanta Center
Sat 08:57:52 AM 34.9275 -84.7558 349° North 383 441 33,500 1,750 Climbing Atlanta Center
Sat 08:58:52 AM 35.0297 -84.7794 349° North 377 434 35,600 1,250 Climbing Atlanta Center
Sat 08:59:52 AM 35.1256 -84.8056 347° North 366 421 36,000 200 Climbing Atlanta Center
Sat 09:00:52 AM 35.2256 -84.8294 349° North 359 413 36,000  Level Atlanta Center
Sat 09:01:52 AM 35.3256 -84.8533 349° North 359 413 36,000  Level Atlanta Center
Sat 09:02:52 AM 35.4256 -84.8797 348° North 359 413 36,000  Level Atlanta Center
Sat 09:03:52 AM 35.5253 -84.9039 349° North 359 413 36,000  Level Atlanta Center
Sat 09:04:52 AM 35.6233 -84.9303 348° North 359 413 36,000  Level Atlanta Center
Sat 09:06:45 AM 35.8144 -84.9775 349° North 367 422 36,000  Level Indianapolis Center
Sat 09:07:47 AM 35.9153 -85.0008 349° North 367 422 36,000  Level Indianapolis Center
Sat 09:08:48 AM 36.0144 -85.0283 347° North 367 422 36,000  Level Indianapolis Center
Sat 09:09:50 AM 36.1153 -85.0411 354° North 365 420 36,000  Level Indianapolis Center
Sat 09:10:51 AM 36.2200 -85.0444 359° North 369 425 36,000  Level Indianapolis Center
Sat 09:11:53 AM 36.3225 -85.0481 358° North 369 425 36,000  Level Indianapolis Center
Sat 09:12:54 AM 36.4458 -85.0525 358° North 369 425 36,000  Level Indianapolis Center
Sat 09:13:56 AM 36.5494 -85.0558 359° North 369 425 36,000  Level Indianapolis Center
Sat 09:14:57 AM 36.6514 -85.0597 358° North 369 425 36,000  Level Indianapolis Center
Sat 09:15:59 AM 36.7494 -85.0811 350° North 364 419 36,000  Level Indianapolis Center
Sat 09:17:00 AM 36.8472 -85.1044 349° North 361 415 36,000  Level Indianapolis Center
Sat 09:18:01 AM 36.9436 -85.1292 348° North 359 413 36,000  Level Indianapolis Center
Sat 09:19:03 AM 37.0431 -85.1528 349° North 357 411 36,000  Level Indianapolis Center
Sat 09:20:04 AM 37.1400 -85.1783 348° North 356 410 36,000  Level Indianapolis Center
Sat 09:21:06 AM 37.2539 -85.2061 349° North 356 410 36,000  Level Indianapolis Center
Sat 09:22:07 AM 37.3508 -85.2283 350° North 356 410 36,000  Level Indianapolis Center
Sat 09:23:09 AM 37.4469 -85.2531 348° North 355 409 36,000  Level Indianapolis Center
Sat 09:24:10 AM 37.5436 -85.2775 349° North 354 407 36,000  Level Indianapolis Center
Sat 09:25:12 AM 37.6414 -85.3022 349° North 354 407 36,000  Level Indianapolis Center
Sat 09:26:14 AM 37.7397 -85.3272 349° North 355 409 36,000  Level Indianapolis Center
Sat 09:27:15 AM 37.8350 -85.3514 349° North 358 412 36,000  Level Indianapolis Center
Sat 09:28:17 AM 37.9528 -85.3814 349° North 360 414 36,000  Level Indianapolis Center
Sat 09:29:18 AM 38.0525 -85.4075 348° North 361 415 36,000  Level Indianapolis Center
Sat 09:30:20 AM 38.1514 -85.4317 349° North 361 415 36,000 -488 Level Indianapolis Center
Sat 09:31:21 AM 38.2519 -85.4572 349° North 362 417 35,000 -488 Descending Indianapolis Center
Sat 09:32:23 AM 38.3489 -85.4817 349° North 361 415 35,000  Level Indianapolis Center
Sat 09:33:24 AM 38.4450 -85.5069 348° North 356 410 35,000  Level Indianapolis Center
Sat 09:34:26 AM 38.5422 -85.5319 349° North 356 410 35,000  Level Indianapolis Center
Sat 09:35:28 AM 38.6428 -85.5581 349° North 358 412 35,000 -537 Level Indianapolis Center
Sat 09:36:29 AM 38.7425 -85.5831 349° North 360 414 33,900 -1,024 Descending Indianapolis Center
Sat 09:37:31 AM 38.8414 -85.6097 348° North 361 415 32,900 -1,016 Descending Indianapolis Center
Sat 09:38:33 AM 38.9586 -85.6400 349° North 361 415 31,800 -1,073 Descending Indianapolis Center
Sat 09:39:34 AM 39.0569 -85.6650 349° North 361 415 30,700 -878 Descending Indianapolis Center
Sat 09:40:36 AM 39.1561 -85.6914 348° North 361 415 30,000 -341 Descending Indianapolis Center
Sat 09:41:37 AM 39.2569 -85.7181 348° North 365 420 30,000 -49 Level Indianapolis Center
Sat 09:42:39 AM 39.3594 -85.7453 348° North 371 427 29,900 -484 Descending Indianapolis Center
Sat 09:43:41 AM 39.4642 -85.7719 349° North 381 438 29,000 -439 Descending Indianapolis Center
Sat 09:44:42 AM 39.5856 -85.8042 348° North 379 436 29,000  Level Indianapolis Center
Sat 09:45:44 AM 39.6883 -85.8325 348° North 379 436 29,000  Level Indianapolis Center
Sat 09:46:46 AM 39.7933 -85.8597 349° North 383 441 29,000 -585 Level Indianapolis Center
Sat 09:47:47 AM 39.8961 -85.8872 348° North 383 441 27,800 -2,000 Descending Indianapolis Center
Sat 09:48:49 AM 39.9978 -85.9144 348° North 381 438 24,900 -1,839 Descending Indianapolis Center
Sat 09:49:51 AM 40.0911 -85.9508 343° North 363 418 24,000 -545 Descending Indianapolis Center
Sat 09:50:28 AM 40.1642 -85.9869 339° North 354 407 24,000 -424 Level Chicago Center
Sat 09:51:30 AM 40.2586 -86.0331 340° North 361 415 23,300 -774 Descending Chicago Center
Sat 09:52:32 AM 40.3511 -86.0794 339° North 361 415 22,400 -927 Descending Chicago Center
Sat 09:53:33 AM 40.4433 -86.1264 339° North 360 414 21,400 -976 Descending Chicago Center
Sat 09:54:35 AM 40.5369 -86.1725 339° North 360 414 20,400 -968 Descending Chicago Center
Sat 09:55:37 AM 40.6289 -86.2197 339° North 359 413 19,400 -1,016 Descending Chicago Center
Sat 09:56:39 AM 40.7297 -86.2700 339° North 351 404 18,300 -1,073 Descending Chicago Center
Sat 09:57:40 AM 40.8156 -86.3136 339° North 334 384 17,200 -1,610 Descending Chicago Center
Sat 09:58:42 AM 40.9000 -86.3572 339° North 329 379 15,000 -2,226 Descending Chicago Center
Sat 09:59:44 AM 40.9839 -86.3986 340° North 325 374 12,600 -1,459 Descending Chicago Center
Sat 10:01:47 AM 41.1033 -86.5672 313° West 297 342 10,500 -843 Descending Chicago Center
Sat 10:02:49 AM 41.1550 -86.6550 308° West 301 346 10,000 -242 Descending Chicago Center
Sat 10:03:51 AM 41.2219 -86.7286 320° Northwest 303 349 10,000 -49 Level Chicago Center
Sat 10:04:52 AM 41.2872 -86.8039 319° Northwest 290 334 9,900 -49 Descending Chicago Center
Sat 10:05:54 AM 41.3422 -86.8672 319° Northwest 263 303 9,900 -532 Level Chicago Center
Sat 10:06:56 AM 41.3978 -86.9314 319° Northwest 249 287 8,800 -1,024 Descending Chicago Center
Sat 10:07:57 AM 41.4486 -86.9925 318° Northwest 248 285 7,800 -927 Descending Chicago Center
Sat 10:08:59 AM 41.4836 -87.0706 301° West 247 284 6,900 -919 Descending Chicago Center
Sat 10:10:01 AM 41.4967 -87.1669 280° West 245 282 5,900 -968 Descending Chicago Center
Sat 10:11:03 AM 41.5094 -87.2572 281° West 246 283 4,900 -878 Descending Chicago Center
Sat 10:12:04 AM 41.5219 -87.3461 281° West 245 282 4,100 -390 Descending Chicago Center
Sat 10:13:06 AM 41.5364 -87.4431 281° West 247 284 4,100  Level Chicago Center
Sat 10:14:08 AM 41.5494 -87.5344 281° West 249 287 4,100  Level Chicago Center
Sat 10:15:09 AM 41.5619 -87.6264 280° West 249 287 4,100 -390 Level Chicago Center
Sat 10:16:11 AM 41.6031 -87.7044 305° West 244 281 3,300 -629 Descending Chicago Center
Sat 10:17:13 AM 41.6431 -87.7550 317° Northwest 206 237 2,800 -387 Descending Chicago Center
Sat 10:18:15 AM 41.6822 -87.8025 318° Northwest 183 211 2,500 -244 Descending Chicago Center
Sat 10:19:16 AM 41.7167 -87.8333 326° Northwest 149 171 2,300 -390 Descending Chicago Center
Sat 10:20:18 AM 41.7447 -87.8011 41° Northeast 128 147 1,700 -629 Descending Chicago Center
Sat 10:21:20 AM 41.7703 -87.7694 43° Northeast 127 146 1,000 -484 Descending Chicago Center
Sat 10:22:22 AM 41.7903 -87.7433 44° Northeast 127 146 700 -290 Descending Chicago Center

Login

Don't have an account? Register now (free) for customized features, flight alerts, and more!